Overview Statistics Trail Chart Weather Telemetry Raw packets
 

This is the latest recevied weather packets stored in our database for station/object AB2HM. If no packets are shown the sender has not sent any weather packets the latest 10 day(s).

<< 1 2 3 4 5 >>
Time Temp. Humidity Pressure Rain* Wind** Luminosity Snow
1788582737 25.56° C 86% 1012.9 hPa 1.27 mm - - -
1788580919 26.11° C 83% 1013 hPa 0 mm - - -
1788579120 26.11° C 80% 1012.7 hPa 0 mm - - -
1788577319 26.11° C 80% 1012.8 hPa 0 mm - - -
1788575511 26.11° C 79% 1012.7 hPa 0 mm - - -
1788573703 26.11° C 78% 1012.7 hPa 0 mm - - -
1788571896 26.67° C 76% 1012.6 hPa 0 mm - - -
1788570087 26.67° C 75% 1012.8 hPa 0 mm - - -
1788568281 26.67° C 72% 1012.5 hPa 0 mm - - -
1788566473 27.78° C 69% 1012.3 hPa 0 mm - - -
1788562860 28.89° C 62% 1012.5 hPa 0 mm - - -
1788561062 29.44° C 59% 1012.4 hPa 0 mm - - -
1788559247 29.44° C 57% 1012.5 hPa 0 mm - - -
1788557444 30.56° C 52% 1012.9 hPa 0 mm - - -
1788555637 31.67° C 49% 1012.3 hPa 0 mm - - -
1788553833 31.67° C 49% 1012.6 hPa 0 mm - - -
1788552011 32.22° C 49% 1012.7 hPa 0 mm - - -
1788550210 32.22° C 48% 1013.1 hPa 0 mm - - -
1788548407 32.22° C 49% 1013.5 hPa 0 mm - - -
1788546593 32.22° C 47% 1013.7 hPa 0 mm - - -
1788544793 31.67° C 49% 1013.6 hPa 0 mm - - -
1788542987 31.67° C 50% 1013.9 hPa 0 mm - - -
1788541180 31.11° C 52% 1013.9 hPa 0 mm - - -
1788539381 31.67° C 53% 1013.9 hPa 0 mm - - -
1788537563 30.56° C 56% 1014.2 hPa 0 mm - - -

* Rain latest hour (hover to see other rain measurements)
** Current wind speed in m/s (hover to see current wind gust speed)